Latest Weather Observations for Williamtown

IDN60901

Issued at 5:21 pm EDT Tuesday 26 March 2019 (issued every 10 minutes, with the page automatically refreshed every 10 minutes)

About weather observations | Map of Sydney area stations | Latest observations for Sydney area | Other Formats
Station Details ID: 061078 Name: WILLIAMTOWN RAAF Lat: -32.79 Lon: 151.84 Height: 7.5 m
Data from the previous 72 hours. | See also: Recent months at Williamtown
Date/Time
EDT
Temp
°C
App
Temp
°C
Dew
Point
°C
Rel
Hum
%
Delta-T
°C
Wind Press
QNH
hPa
Press
MSL
hPa
Rain since
9am
mm
Dir  Spd
km/h
Gust
km/h
Spd
kts
Gust
kts
26/05:00pm 23.9 19.6 12.2 48 6.7 SE 26 35 14 19 1015.5 1015.4 0.0
26/04:30pm 23.9 19.4 12.5 49 6.5 SE 28 35 15 19 1015.1 1015.0 0.0
26/04:00pm 27.1 26.3 11.6 38 8.9 WNW 7 19 4 10 1014.6 1014.5 0.0
26/03:30pm 26.8 24.6 12.1 40 8.5 WNW 15 22 8 12 1014.5 1014.4 0.0
26/03:00pm 26.6 23.5 13.3 43 7.8 WNW 22 33 12 18 1014.4 1014.3 0.0
26/02:30pm 26.6 24.8 14.4 47 7.3 NW 17 30 9 16 1014.4 1014.3 0.0
26/02:00pm 26.0 23.0 12.5 43 7.8 WNW 20 32 11 17 1014.7 1014.6 0.0
26/01:30pm 25.8 24.0 13.3 46 7.3 W 15 28 8 15 1015.2 1015.1 0.0
26/01:00pm 25.4 22.4 14.8 52 6.3 WNW 24 33 13 18 1015.6 1015.5 0.0
26/12:30pm 24.3 22.1 15.0 56 5.6 WNW 20 33 11 18 1015.5 1015.4 0.0
26/12:00pm 24.4 22.2 15.9 59 5.2 WNW 22 28 12 15 1015.1 1015.0 0.0
26/11:30am 23.4 22.0 15.5 61 4.7 W 17 22 9 12 1015.7 1015.6 0.0
26/11:00am 22.9 21.8 15.2 62 4.6 WSW 15 19 8 10 1015.6 1015.5 0.0
26/10:30am 23.1 21.7 17.1 69 3.7 WNW 20 28 11 15 1015.7 1015.6 0.0
26/10:00am 21.9 19.8 17.1 74 2.9 WNW 24 30 13 16 1015.6 1015.5 0.0
26/09:30am 22.0 20.5 16.7 72 3.2 W 20 28 11 15 1015.3 1015.2 0.0
26/09:00am 21.5 20.7 17.9 80 2.2 W 19 28 10 15 1015.2 1015.1 0.0
26/08:30am 20.8 20.3 16.0 74 2.9 W 13 17 7 9 1014.9 1014.8 0.0
26/08:00am 20.4 20.3 16.0 76 2.6 WSW 11 15 6 8 1014.5 1014.4 0.0
26/07:30am 20.3 20.6 15.9 76 2.6 W 9 13 5 7 1014.1 1014.0 0.0
26/07:00am 20.7 20.1 15.7 73 3.0 W 13 17 7 9 1013.9 1013.8 0.0
26/06:30am 20.8 20.3 15.8 73 3.0 W 13 19 7 10 1013.5 1013.4 0.0
26/06:00am 20.9 20.8 15.9 73 3.0 WSW 11 17 6 9 1013.3 1013.2 0.0
26/05:30am 21.7 20.3 16.6 73 3.1 SW 19 28 10 15 1013.1 1013.0 0.0
26/05:29am 21.7 20.6 16.4 72 3.2 SW 17 28 9 15 1013.1 1013.0 0.0
26/05:00am 22.2 23.4 19.0 82 2.0 SW 11 17 6 9 1013.1 1013.0 0.0
26/04:30am 22.1 23.2 18.9 82 2.0 SW 11 13 6 7 1012.6 1012.5 0.0
26/04:15am 22.6 23.7 18.8 79 2.4 SSW 11 13 6 7 1012.5 1012.4 0.0
26/04:00am 22.8 23.5 18.8 78 2.5 SW 13 19 7 10 1012.4 1012.3 0.0
26/03:30am 23.4 24.0 18.5 74 3.1 W 13 20 7 11 1012.4 1012.3 0.0
26/03:00am 23.2 23.8 18.7 76 2.8 W 13 15 7 8 1012.3 1012.2 0.0
26/02:30am 21.6 22.7 18.8 84 1.8 WNW 11 13 6 7 1012.2 1012.1 0.0
26/02:00am 21.4 22.6 19.0 86 1.5 WNW 11 13 6 7 1012.3 1012.2 0.0
26/01:30am 21.7 22.7 18.7 83 1.9 NW 11 11 6 6 1012.2 1012.1 0.0
26/01:00am 21.9 23.2 18.5 81 2.1 NW 9 11 5 6 1012.1 1012.0 0.0
26/12:30am 22.1 23.9 18.7 81 2.1 NW 7 9 4 5 1012.1 1012.0 0.0
26/12:00am 21.9 22.7 19.1 84 1.8 WNW 13 13 7 7 1011.9 1011.8 0.0
 
Date/Time
EDT
Temp
°C
App
Temp
°C
Dew
Point
°C
Rel
Hum
%
Delta-T
°C
Wind Press
QNH
hPa
Press
MSL
hPa
Rain since
9am
mm
Dir  Spd
km/h
Gust
km/h
Spd
kts
Gust
kts
25/11:30pm 23.3 24.0 18.8 76 2.8 N 13 15 7 8 1012.0 1011.9 0.0
25/11:00pm 22.4 23.3 18.4 78 2.5 NNE 11 13 6 7 1011.9 1011.8 0.0
25/10:30pm 23.2 24.5 18.5 75 3.0 N 9 13 5 7 1011.8 1011.7 0.0
25/10:00pm 22.9 23.8 18.4 76 2.8 NNW 11 15 6 8 1012.0 1011.9 0.0
25/09:30pm 22.6 24.1 18.8 79 2.4 N 9 13 5 7 1011.8 1011.7 0.0
25/09:07pm 23.0 24.3 18.5 76 2.8 NNE 9 13 5 7 1011.5 1011.4 0.0
25/09:00pm 23.2 24.1 18.5 75 3.0 NNE 11 13 6 7 1011.7 1011.6 0.0
25/08:30pm 23.4 24.4 18.7 75 3.0 NNE 11 15 6 8 1011.6 1011.5 0.0
25/08:00pm 23.9 25.0 18.8 73 3.2 NNE 11 15 6 8 1011.4 1011.3 0.0
25/07:30pm 22.8 25.7 19.0 79 2.4 N 2 9 1 5 1011.4 1011.3 0.0
25/07:00pm 23.5 25.3 18.8 75 3.0 ENE 7 9 4 5 1011.0 1010.9 0.0
25/06:30pm 24.1 25.3 18.3 70 3.7 NE 9 9 5 5 1010.7 1010.6 0.0
25/06:00pm 24.4 25.2 18.1 68 4.0 N 11 15 6 8 1010.2 1010.1 0.0
25/05:30pm 24.2 24.8 18.6 71 3.5 NNE 13 15 7 8 1009.8 1009.7 0.0
25/05:00pm 24.6 25.8 19.0 71 3.6 NNE 11 17 6 9 1009.4 1009.3 0.0
25/04:30pm 25.5 27.2 18.4 65 4.5 N 7 13 4 7 1009.6 1009.5 0.0
25/04:00pm 25.8 26.2 18.2 63 4.8 NW 13 17 7 9 1009.8 1009.7 0.0
25/03:30pm 26.3 25.8 17.9 60 5.3 WNW 17 26 9 14 1009.9 1009.8 0.0
25/03:00pm 26.3 25.6 18.7 63 4.9 NNW 20 30 11 16 1009.5 1009.4 0.0
25/02:30pm 25.5 25.4 19.6 70 3.8 NNW 19 30 10 16 1009.6 1009.5 0.0
25/02:00pm 24.7 25.2 20.0 75 3.0 NNW 17 26 9 14 1009.6 1009.5 0.0
25/01:30pm 24.1 24.2 20.0 78 2.6 NNW 19 26 10 14 1009.8 1009.7 0.0
25/01:00pm 23.0 24.5 19.8 82 2.1 N 11 15 6 8 1010.0 1009.9 0.0
25/12:30pm 23.0 23.2 19.4 80 2.3 NNW 17 22 9 12 1010.4 1010.3 0.0
25/12:00pm 22.9 23.4 19.3 80 2.3 NNW 15 20 8 11 1011.5 1011.4 0.0
25/11:30am 22.9 24.0 18.9 78 2.5 NW 11 15 6 8 1012.0 1011.9 0.0
25/11:00am 22.8 24.0 19.0 79 2.4 WNW 11 17 6 9 1011.8 1011.7 0.0
25/10:30am 22.8 24.3 19.8 83 1.9 NNW 11 17 6 9 1012.1 1012.0 0.0
25/10:00am 23.0 25.1 19.4 80 2.3 WNW 7 9 4 5 1012.1 1012.0 0.0
25/09:30am 22.7 24.9 19.7 83 1.9 W 7 11 4 6 1011.8 1011.7 0.0
25/09:00am 22.3 24.3 20.8 91 1.0 W 11 13 6 7 1012.0 1011.9 5.2
25/08:30am 21.8 24.8 20.8 94 0.6 NNW 6 9 3 5 1011.6 1011.5 5.2
25/08:00am 21.6 25.6 20.6 94 0.6 CALM 0 0 0 0 1011.2 1011.1 5.2
25/07:30am 21.5 23.4 20.5 94 0.6 W 11 15 6 8 1011.1 1011.0 5.2
25/07:00am 21.5 23.8 20.7 95 0.5 NNW 9 11 5 6 1009.9 1009.8 5.2
25/06:30am 21.4 23.3 20.6 95 0.5 NW 11 13 6 7 1009.4 1009.3 5.2
25/06:00am 21.7 24.4 20.7 94 0.6 NNE 7 9 4 5 1008.7 1008.6 5.2
25/05:30am 21.6 24.5 20.6 94 0.6 NNE 6 9 3 5 1008.1 1008.1 5.2
25/05:00am 21.3 23.2 20.5 95 0.5 NNW 11 13 6 7 1008.7 1008.6 5.2
25/04:30am 21.4 24.0 20.4 94 0.6 N 7 9 4 5 1008.7 1008.6 5.2
25/04:00am 21.6 24.2 20.4 93 0.8 NNE 7 11 4 6 1008.3 1008.3 5.0
25/03:30am 21.5 22.0 20.1 92 0.9 NW 17 28 9 15 1009.4 1009.3 4.8
25/03:00am 21.6 23.5 20.6 94 0.6 NNW 11 13 6 7 1009.3 1009.2 4.8
25/02:30am 21.3 24.0 20.3 94 0.6 NNW 6 9 3 5 1009.2 1009.1 4.8
25/02:00am 21.3 23.4 20.1 93 0.8 NW 9 9 5 5 1009.7 1009.6 4.8
25/01:30am 21.6 24.1 20.2 92 0.9 N 7 9 4 5 1009.9 1009.8 4.8
25/01:00am 21.9 23.7 20.4 91 1.0 NNE 11 15 6 8 1010.4 1010.3 4.8
25/12:30am 21.9 22.6 20.4 91 1.0 N 17 20 9 11 1010.8 1010.7 4.8
25/12:00am 21.9 23.7 20.4 91 1.0 N 11 15 6 8 1011.6 1011.5 4.8
 
Date/Time
EDT
Temp
°C
App
Temp
°C
Dew
Point
°C
Rel
Hum
%
Delta-T
°C
Wind Press
QNH
hPa
Press
MSL
hPa
Rain since
9am
mm
Dir  Spd
km/h
Gust
km/h
Spd
kts
Gust
kts
24/11:30pm 21.7 23.9 20.5 93 0.8 N 9 11 5 6 1011.6 1011.5 4.8
24/11:00pm 21.8 25.7 20.3 91 1.0 CALM 0 6 0 3 1011.5 1011.4 4.8
24/10:30pm 21.9 25.4 20.4 91 1.0 NNW 2 6 1 3 1012.0 1011.9 4.8
24/10:00pm 22.1 24.1 20.0 88 1.3 NNE 9 13 5 7 1012.1 1012.0 4.8
24/09:30pm 22.4 26.4 20.5 89 1.2 CALM 0 0 0 0 1012.3 1012.2 4.8
24/09:00pm 22.1 24.1 20.0 88 1.3 NE 9 13 5 7 1012.3 1012.2 4.8
24/08:30pm 22.3 24.7 20.0 87 1.5 E 7 11 4 6 1011.7 1011.6 4.8
24/08:00pm 22.6 25.8 20.5 88 1.4 NNW 4 9 2 5 1011.5 1011.4 4.8
24/07:35pm 23.0 26.1 20.3 85 1.7 W 4 9 2 5 1011.5 1011.4 4.6
24/07:30pm 23.0 25.4 20.0 83 1.9 WSW 7 19 4 10 1011.1 1011.0 4.6
24/07:13pm 23.6 22.4 18.5 73 3.2 WSW 22 30 12 16 1011.0 1010.9 1.8
24/07:00pm 25.6 28.0 21.5 78 2.7 SSE 11 15 6 8 1009.4 1009.3 0.0
24/06:30pm 26.0 27.8 21.2 75 3.2 SE 13 17 7 9 1009.1 1009.0 0.0
24/06:00pm 26.7 27.0 20.3 68 4.2 SSE 19 26 10 14 1009.0 1008.9 0.0
24/05:30pm 27.2 27.5 20.5 67 4.4 SE 19 28 10 15 1009.0 1008.9 0.0
24/05:00pm 27.8 28.4 21.1 67 4.5 SE 19 26 10 14 1009.1 1009.0 0.0
24/04:30pm 28.1 28.0 19.6 60 5.5 SE 19 26 10 14 1009.1 1009.0 0.0
24/04:00pm 29.1 28.7 18.8 53 6.7 SE 19 26 10 14 1009.2 1009.1 0.0
24/03:30pm 28.5 29.0 20.8 63 5.1 ESE 19 24 10 13 1009.4 1009.3 0.0
24/03:00pm 29.0 28.9 20.7 61 5.5 SE 22 26 12 14 1009.6 1009.5 0.0
24/02:30pm 29.2 29.7 20.9 61 5.5 ESE 19 24 10 13 1010.0 1009.9 0.0
24/02:00pm 29.7 30.3 20.3 57 6.2 SE 17 24 9 13 1010.3 1010.2 0.0
24/01:30pm 30.1 30.8 20.4 56 6.4 SE 17 22 9 12 1010.7 1010.6 0.0
24/01:00pm 32.4 33.0 18.6 44 9.0 W 13 22 7 12 1010.9 1010.8 0.0
24/12:30pm 31.4 32.2 19.1 48 8.0 W 13 20 7 11 1010.9 1010.8 0.0
24/12:00pm 30.7 32.2 21.2 57 6.4 WNW 15 22 8 12 1011.2 1011.1 0.0
24/11:30am 29.6 30.4 20.7 58 5.9 WNW 17 22 9 12 1011.5 1011.4 0.0
24/11:00am 28.2 28.3 20.0 61 5.4 WNW 19 28 10 15 1011.5 1011.4 0.0
24/10:30am 26.7 27.3 20.3 68 4.2 NW 17 24 9 13 1011.5 1011.4 0.0
24/10:00am 25.8 26.1 20.4 72 3.5 WNW 19 24 10 13 1011.5 1011.4 0.0
24/09:30am 24.3 24.2 19.6 75 3.0 WNW 19 22 10 12 1011.5 1011.4 0.0
24/09:00am 23.1 23.4 19.7 81 2.2 NW 17 24 9 13 1011.3 1011.2 5.4
24/08:30am 22.1 23.2 19.6 86 1.6 NW 13 17 7 9 1011.3 1011.2 5.4
24/08:00am 21.3 22.2 19.2 88 1.3 NW 13 19 7 10 1011.3 1011.2 5.4
24/07:30am 20.3 21.1 19.1 93 0.8 NW 13 17 7 9 1011.2 1011.1 5.4
24/07:00am 20.1 21.2 18.9 93 0.8 NW 11 13 6 7 1011.1 1011.0 5.4
24/06:30am 20.2 21.3 18.9 92 0.8 NW 11 13 6 7 1010.9 1010.8 5.4
24/06:00am 20.4 21.9 18.9 91 0.9 WNW 9 11 5 6 1010.9 1010.8 5.4
24/05:30am 20.7 22.0 19.2 91 0.9 NNW 11 15 6 8 1010.5 1010.4 5.4
24/05:00am 21.0 22.7 19.3 90 1.1 WNW 9 11 5 6 1010.7 1010.6 5.4
24/04:30am 21.2 23.1 19.7 91 1.0 NW 9 11 5 6 1010.6 1010.5 5.4
24/04:00am 21.3 23.8 19.9 92 0.9 N 6 9 3 5 1010.5 1010.4 5.4
24/03:30am 21.2 23.5 19.8 92 0.9 NNW 7 9 4 5 1010.9 1010.8 5.4
24/03:00am 21.7 24.1 20.0 90 1.1 N 7 9 4 5 1011.1 1011.0 5.4
24/02:30am 21.7 23.5 20.3 92 0.9 NNW 11 15 6 8 1011.6 1011.5 5.4
24/02:00am 21.2 23.1 19.7 91 1.0 NW 9 13 5 7 1012.0 1011.9 5.4
24/01:30am 21.2 22.7 18.9 87 1.4 NNW 9 15 5 8 1011.8 1011.7 5.4
24/01:00am 21.7 21.1 18.5 82 2.0 NNE 19 30 10 16 1012.0 1011.9 5.4
24/12:30am 21.7 21.1 18.5 82 2.0 NE 19 28 10 15 1012.1 1012.0 5.4
24/12:00am 20.9 20.4 19.0 89 1.2 ENE 20 28 11 15 1012.4 1012.3 5.4
 
Date/Time
EDT
Temp
°C
App
Temp
°C
Dew
Point
°C
Rel
Hum
%
Delta-T
°C
Wind Press
QNH
hPa
Press
MSL
hPa
Rain since
9am
mm
Dir  Spd
km/h
Gust
km/h
Spd
kts
Gust
kts
23/11:30pm 21.0 20.7 19.1 89 1.2 ENE 19 26 10 14 1013.6 1013.5 5.2
23/11:11pm 21.4 23.4 20.0 92 0.9 ESE 9 15 5 8 1014.8 1014.7 5.0
23/11:00pm 21.3 22.7 19.6 90 1.1 NNE 11 19 6 10 1014.9 1014.8 5.0
23/10:46pm 22.1 20.4 19.8 87 1.5 W 28 48 15 26 1016.0 1015.9 1.6
23/10:32pm 23.8 25.2 21.9 89 1.3 ESE 17 48 9 26 1014.7 1014.6 0.4
23/10:30pm 24.1 26.4 22.0 88 1.4 E 13 28 7 15 1013.7 1013.6 0.4
23/10:00pm 24.4 25.4 21.1 82 2.2 ENE 17 26 9 14 1012.1 1012.0 0.0
23/09:30pm 24.6 25.1 20.1 76 2.9 ENE 17 26 9 14 1011.6 1011.5 0.0
23/09:00pm 24.6 25.2 19.4 73 3.3 E 15 20 8 11 1011.2 1011.1 0.0
23/08:30pm 24.6 24.9 19.7 74 3.2 ENE 17 22 9 12 1010.8 1010.7 0.0
23/08:00pm 24.4 25.0 20.3 78 2.7 ENE 17 22 9 12 1010.6 1010.5 0.0
23/07:30pm 24.4 24.7 19.5 74 3.1 ENE 17 22 9 12 1010.3 1010.2 0.0
23/07:00pm 24.9 24.8 18.8 69 3.9 ENE 17 24 9 13 1010.4 1010.3 0.0
23/06:30pm 25.4 25.1 18.3 65 4.5 ENE 17 26 9 14 1010.2 1010.1 0.0
23/06:00pm 26.1 25.1 18.0 61 5.1 ENE 20 28 11 15 1010.1 1010.0 0.0
23/05:30pm 27.6 27.6 18.9 59 5.6 NE 17 20 9 11 1009.8 1009.7 0.0

Latest Capital City Observations: Canberra | Sydney | Melbourne | Brisbane | Adelaide | Perth | Hobart | Darwin

Other formats

Comma delimited format used in spreadsheet applications
http://www.bom.gov.au/fwo/IDN60901/IDN60901.94776.axf

JavaScript Object Notation format (JSON) in row-major order
http://www.bom.gov.au/fwo/IDN60901/IDN60901.94776.json

Data quality

Most of these data are generated automatically and are frequently updated. Quality checks on data are not normally performed. It is possible for incorrect values to appear. Refer to information at About Latest Weather Observations and please check the disclaimer before using these data.